createdAt,value
2017-04-11T00:00:18.712Z,0
2017-04-11T00:01:18.739Z,0
2017-04-11T00:02:18.752Z,0
2017-04-11T00:03:19.076Z,0
2017-04-11T00:04:33.411Z,0
2017-04-11T00:05:19.118Z,0
2017-04-11T00:06:19.141Z,0
2017-04-11T00:07:18.860Z,0
2017-04-11T00:08:33.794Z,0
2017-04-11T00:09:19.201Z,0
2017-04-11T00:11:19.236Z,0
2017-04-11T00:12:19.356Z,0
2017-04-11T00:13:19.282Z,0
2017-04-11T00:14:19.355Z,0
2017-04-11T00:15:19.319Z,0
2017-04-11T00:16:33.955Z,0
2017-04-11T00:17:19.359Z,0
2017-04-11T00:18:19.079Z,0
2017-04-11T00:19:48.671Z,0
2017-04-11T00:20:19.424Z,0
2017-04-11T00:21:34.057Z,0
2017-04-11T00:22:19.463Z,0
2017-04-11T00:23:33.796Z,0
2017-04-11T00:25:19.520Z,0
2017-04-11T00:27:19.559Z,0
2017-04-11T00:28:19.582Z,0
2017-04-11T00:29:19.603Z,0
2017-04-11T00:30:19.622Z,0
2017-04-11T00:31:19.646Z,0
2017-04-11T00:32:19.661Z,0
2017-04-11T00:33:19.381Z,0
2017-04-11T00:34:48.935Z,0
2017-04-11T00:35:34.340Z,0
2017-04-11T00:36:34.359Z,0
2017-04-11T00:37:19.765Z,0
2017-04-11T00:38:19.788Z,0
2017-04-11T00:39:19.803Z,0
2017-04-11T00:40:20.144Z,0
2017-04-11T00:41:19.543Z,0
2017-04-11T00:42:19.564Z,0
2017-04-11T00:43:19.885Z,0
2017-04-11T00:44:19.904Z,0
2017-04-11T00:45:19.924Z,0
2017-04-11T00:46:19.948Z,0
2017-04-11T00:47:19.965Z,0
2017-04-11T00:48:19.687Z,0
2017-04-11T00:49:19.704Z,0
2017-04-11T00:50:20.024Z,0
2017-04-11T00:51:20.046Z,0
2017-04-11T00:52:34.680Z,0
2017-04-11T00:53:20.083Z,0
2017-04-11T00:54:20.104Z,0
2017-04-11T00:55:34.737Z,0
2017-04-11T00:56:20.142Z,0
2017-04-11T00:57:20.161Z,0
2017-04-11T00:58:20.190Z,0
2017-04-11T00:59:20.202Z,0
2017-04-11T01:00:20.224Z,0
2017-04-11T01:01:34.860Z,0
2017-04-11T01:02:20.263Z,0
2017-04-11T01:04:20.002Z,0
2017-04-11T01:05:20.320Z,0
2017-04-11T01:06:20.341Z,0
2017-04-11T01:07:34.978Z,0
2017-04-11T01:08:20.389Z,0
2017-04-11T01:09:49.631Z,0
2017-04-11T01:10:20.422Z,0
2017-04-11T01:11:35.054Z,0
2017-04-11T01:12:20.461Z,0
2017-04-11T01:13:20.480Z,0
2017-04-11T01:14:20.504Z,0
2017-04-11T01:15:20.522Z,0
2017-04-11T01:16:20.572Z,0
2017-04-11T01:17:20.258Z,0
2017-04-11T01:18:20.585Z,0
2017-04-11T01:19:20.608Z,0
2017-04-11T01:20:20.618Z,0
2017-04-11T01:21:20.638Z,0
2017-04-11T01:22:20.660Z,0
2017-04-11T01:23:34.994Z,0
2017-04-11T01:24:20.707Z,0
2017-04-11T01:25:20.718Z,0
2017-04-11T01:26:20.740Z,0
2017-04-11T01:27:35.069Z,0
2017-04-11T01:28:20.783Z,0
2017-04-11T01:29:20.812Z,0
2017-04-11T01:30:20.815Z,0
2017-04-11T01:31:35.160Z,0
2017-04-11T01:33:20.884Z,0
2017-04-11T01:34:20.599Z,0
2017-04-11T01:35:20.612Z,0
2017-04-11T01:36:20.634Z,0
2017-04-11T01:37:20.657Z,0
2017-04-11T01:38:20.672Z,0
2017-04-11T01:39:21.001Z,0
2017-04-11T01:40:20.709Z,0
2017-04-11T01:41:21.032Z,0
2017-04-11T01:42:20.754Z,0
2017-04-11T01:43:35.688Z,0
2017-04-11T01:44:35.709Z,0
2017-04-11T01:45:21.117Z,0
2017-04-11T01:46:21.133Z,0
2017-04-11T01:48:21.173Z,0
2017-04-11T01:49:21.190Z,0
2017-04-11T01:50:21.967Z,0
2017-04-11T01:51:21.236Z,0
2017-04-11T01:52:20.951Z,0
2017-04-11T01:53:20.969Z,0
2017-04-11T01:54:20.992Z,0
2017-04-11T01:55:21.315Z,0
2017-04-11T01:56:21.331Z,0
2017-04-11T01:57:35.968Z,0
2017-04-11T01:58:35.991Z,0
2017-04-11T01:59:21.094Z,0
2017-04-11T02:00:35.733Z,0
2017-04-11T02:01:21.429Z,0
2017-04-11T02:02:36.070Z,0
2017-04-11T02:03:21.470Z,0
2017-04-11T02:04:21.185Z,0
2017-04-11T02:05:21.512Z,0
2017-04-11T02:06:21.524Z,0
2017-04-11T02:07:21.551Z,0
2017-04-11T02:09:21.589Z,0
2017-04-11T02:10:36.258Z,0
2017-04-11T02:11:21.624Z,0
2017-04-11T02:12:21.644Z,0
2017-04-11T02:13:36.280Z,0
2017-04-11T02:14:21.683Z,0
2017-04-11T02:15:21.904Z,0
2017-04-11T02:16:21.718Z,0
2017-04-11T02:17:21.739Z,0
2017-04-11T02:18:21.610Z,0
2017-04-11T02:19:21.780Z,0
2017-04-11T02:20:21.800Z,0
2017-04-11T02:21:21.618Z,0
2017-04-11T02:22:21.839Z,0
2017-04-11T02:23:21.865Z,0
2017-04-11T02:24:21.880Z,0
2017-04-11T02:25:21.899Z,0
2017-04-11T02:26:21.609Z,0
2017-04-11T02:27:36.256Z,0
2017-04-11T02:28:21.657Z,0
2017-04-11T02:29:21.675Z,0
2017-04-11T02:30:36.608Z,0
2017-04-11T02:31:22.013Z,0
2017-04-11T02:32:21.730Z,0
2017-04-11T02:33:22.059Z,0
2017-04-11T02:35:22.098Z,0
2017-04-11T02:36:21.808Z,0
2017-04-11T02:37:21.830Z,0
2017-04-11T02:38:22.157Z,0
2017-04-11T02:39:36.786Z,0
2017-04-11T02:40:22.192Z,0
2017-04-11T02:41:22.209Z,0
2017-04-11T02:42:21.926Z,0
2017-04-11T02:43:36.560Z,0
2017-04-11T02:44:36.896Z,0
2017-04-11T02:45:22.287Z,0
2017-04-11T02:46:36.617Z,0
2017-04-11T02:47:22.325Z,0
2017-04-11T02:48:22.358Z,0
2017-04-11T02:49:22.366Z,0
2017-04-11T02:50:21.773Z,0
2017-04-11T02:51:22.406Z,0
2017-04-11T02:52:37.134Z,0
2017-04-11T02:53:22.438Z,0
2017-04-11T02:54:22.459Z,0
2017-04-11T02:55:22.475Z,0
2017-04-11T02:56:21.892Z,0
2017-04-11T02:57:22.216Z,0
2017-04-11T02:58:22.536Z,0
2017-04-11T02:59:22.556Z,0
2017-04-11T03:00:22.619Z,0
2017-04-11T03:02:37.232Z,0
2017-04-11T03:04:22.667Z,0
2017-04-11T03:05:37.292Z,0
2017-04-11T03:06:22.698Z,0
2017-04-11T03:07:22.708Z,0
2017-04-11T03:08:22.736Z,0
2017-04-11T03:09:22.750Z,0
2017-04-11T03:10:37.385Z,0
2017-04-11T03:11:37.402Z,0
2017-04-11T03:12:37.428Z,0
2017-04-11T03:13:22.829Z,0
2017-04-11T03:14:22.847Z,0
2017-04-11T03:15:37.483Z,0
2017-04-11T03:16:22.887Z,0
2017-04-11T03:18:37.543Z,0
2017-04-11T03:20:37.575Z,0
2017-04-11T03:21:22.678Z,0
2017-04-11T03:22:23.000Z,0
2017-04-11T03:23:23.026Z,0
2017-04-11T03:24:23.039Z,0
2017-04-11T03:25:23.058Z,0
2017-04-11T03:26:23.084Z,0
2017-04-11T03:27:23.398Z,0
2017-04-11T03:28:37.733Z,0
2017-04-11T03:30:37.809Z,0
2017-04-11T03:31:52.405Z,0
2017-04-11T03:32:23.193Z,0
2017-04-11T03:33:37.830Z,0
2017-04-11T03:34:37.848Z,0
2017-04-11T03:35:23.250Z,0
2017-04-11T03:36:23.271Z,0
2017-04-11T03:37:23.288Z,0
2017-04-11T03:38:23.358Z,0
2017-04-11T03:39:23.336Z,0
2017-04-11T03:40:37.967Z,0
2017-04-11T03:41:23.425Z,0
2017-04-11T03:42:23.386Z,0
2017-04-11T03:43:38.028Z,0
2017-04-11T03:44:23.430Z,0
2017-04-11T03:45:38.065Z,0
2017-04-11T03:46:52.696Z,0
2017-04-11T03:47:23.181Z,0
2017-04-11T03:49:23.524Z,0
2017-04-11T03:50:23.543Z,0
2017-04-11T03:51:23.561Z,0
2017-04-11T03:52:23.580Z,0
2017-04-11T03:53:23.597Z,0
2017-04-11T03:55:23.638Z,0
2017-04-11T03:56:37.970Z,0
2017-04-11T03:57:23.677Z,0
2017-04-11T03:58:23.695Z,0
2017-04-11T03:59:23.410Z,0
2017-04-11T04:00:23.734Z,0
2017-04-11T04:01:23.768Z,0
2017-04-11T04:02:23.770Z,0
2017-04-11T04:03:38.104Z,0
2017-04-11T04:04:23.506Z,0
2017-04-11T04:05:38.445Z,0
2017-04-11T04:06:23.547Z,0
2017-04-11T04:07:23.875Z,0
2017-04-11T04:08:23.737Z,0
2017-04-11T04:09:23.926Z,0
2017-04-11T04:10:38.240Z,5
2017-04-11T04:11:23.646Z,5
2017-04-11T04:12:23.659Z,5
2017-04-11T04:13:23.679Z,5
2017-04-11T04:14:38.615Z,5
2017-04-11T04:15:24.022Z,5
2017-04-11T04:16:24.036Z,5
2017-04-11T04:17:52.986Z,10
2017-04-11T04:18:24.079Z,10
2017-04-11T04:19:24.099Z,10
2017-04-11T04:20:38.731Z,10
2017-04-11T04:21:38.747Z,10
2017-04-11T04:22:38.768Z,15
2017-04-11T04:24:24.226Z,15
2017-04-11T04:25:24.408Z,15
2017-04-11T04:26:24.229Z,20
2017-04-11T04:27:24.274Z,20
2017-04-11T04:28:23.963Z,20
2017-04-11T04:29:24.287Z,25
2017-04-11T04:30:24.300Z,25
2017-04-11T04:31:38.937Z,25
2017-04-11T04:32:24.035Z,30
2017-04-11T04:33:53.592Z,30
2017-04-11T04:34:24.380Z,35
2017-04-11T04:35:24.396Z,35
2017-04-11T04:36:24.115Z,35
2017-04-11T04:37:39.068Z,35
2017-04-11T04:38:24.455Z,40
2017-04-11T04:40:24.494Z,45
2017-04-11T04:41:24.512Z,45
2017-04-11T04:43:24.550Z,50
2017-04-11T04:45:39.205Z,60
2017-04-11T04:46:39.229Z,60
2017-04-11T04:47:39.248Z,65
2017-04-11T04:48:39.260Z,65
2017-04-11T04:49:39.280Z,80
2017-04-11T04:50:39.309Z,145
2017-04-11T04:51:24.708Z,200
2017-04-11T04:52:24.726Z,255
2017-04-11T04:54:24.763Z,105
2017-04-11T04:55:24.783Z,260
2017-04-11T04:56:24.801Z,255
2017-04-11T04:57:24.867Z,245
2017-04-11T04:58:24.847Z,230
2017-04-11T04:59:24.565Z,130
2017-04-11T05:00:24.582Z,95
2017-04-11T05:01:24.903Z,80
2017-04-11T05:02:24.627Z,75
2017-04-11T05:03:24.940Z,165
2017-04-11T05:04:24.656Z,365
2017-04-11T05:05:24.993Z,105
2017-04-11T05:06:54.235Z,160
2017-04-11T05:07:25.031Z,370
2017-04-11T05:08:39.675Z,250
2017-04-11T05:09:25.066Z,120
2017-04-11T05:10:25.084Z,70
2017-04-11T05:12:39.748Z,60
2017-04-11T05:13:25.147Z,65
2017-04-11T05:15:24.888Z,65
2017-04-11T05:16:25.209Z,80
2017-04-11T05:17:25.226Z,75
2017-04-11T05:18:39.871Z,75
2017-04-11T05:19:25.267Z,80
2017-04-11T05:20:25.288Z,85
2017-04-11T05:21:54.542Z,90
2017-04-11T05:22:25.328Z,90
2017-04-11T05:23:25.349Z,90
2017-04-11T05:24:39.986Z,80
2017-04-11T05:25:25.391Z,75
2017-04-11T05:26:25.412Z,70
2017-04-11T05:27:25.431Z,75
2017-04-11T05:28:25.452Z,70
2017-04-11T05:29:25.473Z,60
2017-04-11T05:30:25.501Z,55
2017-04-11T05:31:40.131Z,65
2017-04-11T05:32:25.532Z,60
2017-04-11T05:33:40.167Z,50
2017-04-11T05:34:25.571Z,55
2017-04-11T05:35:25.595Z,50
2017-04-11T05:36:25.612Z,45
2017-04-11T05:38:25.654Z,50
2017-04-11T05:39:25.671Z,45
2017-04-11T05:40:40.320Z,50
2017-04-11T05:41:25.715Z,45
2017-04-11T05:42:25.737Z,50
2017-04-11T05:43:25.757Z,50
2017-04-11T05:44:25.776Z,45
2017-04-11T05:45:25.793Z,45
2017-04-11T05:46:25.818Z,45
2017-04-11T05:47:25.530Z,45
2017-04-11T05:48:25.857Z,45
2017-04-11T05:49:55.108Z,50
2017-04-11T05:50:40.508Z,50
2017-04-11T05:51:25.918Z,45
2017-04-11T05:52:25.932Z,50
2017-04-11T05:53:25.652Z,50
2017-04-11T05:55:40.619Z,55
2017-04-11T05:56:40.628Z,55
2017-04-11T05:57:26.033Z,55
2017-04-11T05:58:26.059Z,55
2017-04-11T05:59:26.070Z,55
2017-04-11T06:00:40.808Z,50
2017-04-11T06:01:26.109Z,50
2017-04-11T06:02:26.132Z,55
2017-04-11T06:03:26.496Z,60
2017-04-11T06:04:26.179Z,60
2017-04-11T06:05:40.806Z,65
2017-04-11T06:06:26.211Z,60
2017-04-11T06:07:26.331Z,60
2017-04-11T06:08:40.870Z,60
2017-04-11T06:09:26.271Z,70
2017-04-11T06:10:26.289Z,70
2017-04-11T06:11:26.307Z,75
2017-04-11T06:12:40.952Z,75
2017-04-11T06:13:27.001Z,70
2017-04-11T06:15:26.390Z,75
2017-04-11T06:16:26.125Z,70
2017-04-11T06:17:26.438Z,65
2017-04-11T06:18:41.078Z,75
2017-04-11T06:19:26.477Z,75
2017-04-11T06:20:26.493Z,75
2017-04-11T06:21:26.207Z,85
2017-04-11T06:22:26.228Z,90
2017-04-11T06:23:26.254Z,95
2017-04-11T06:24:26.578Z,110
2017-04-11T06:25:41.215Z,135
2017-04-11T06:26:26.613Z,150
2017-04-11T06:28:40.976Z,280
2017-04-11T06:29:41.288Z,425
2017-04-11T06:30:26.391Z,290
2017-04-11T06:31:26.714Z,195
2017-04-11T06:33:26.452Z,140
2017-04-11T06:34:26.474Z,130
2017-04-11T06:35:26.825Z,115
2017-04-11T06:36:26.825Z,100
2017-04-11T06:37:26.841Z,110
2017-04-11T06:39:26.580Z,160
2017-04-11T06:40:26.909Z,130
2017-04-11T06:41:26.621Z,120
2017-04-11T06:42:41.564Z,130
2017-04-11T06:45:27.007Z,155
2017-04-11T06:46:27.034Z,125
2017-04-11T06:47:26.752Z,115
2017-04-11T06:48:41.702Z,85
2017-04-11T06:49:27.095Z,75
2017-04-11T06:50:26.815Z,65
2017-04-11T06:51:27.136Z,60
2017-04-11T06:52:41.774Z,75
2017-04-11T06:53:26.877Z,110
2017-04-11T06:54:27.204Z,185
2017-04-11T06:55:27.230Z,320
2017-04-11T06:56:42.012Z,315
2017-04-11T06:57:41.880Z,240
2017-04-11T06:58:27.292Z,255
2017-04-11T06:59:27.308Z,200
2017-04-11T07:01:27.350Z,135
2017-04-11T07:02:26.765Z,135
2017-04-11T07:03:42.009Z,110
2017-04-11T07:04:27.413Z,95
2017-04-11T07:05:27.436Z,85
2017-04-11T07:06:27.463Z,80
2017-04-11T07:07:27.477Z,75
2017-04-11T07:08:42.117Z,75
2017-04-11T07:09:27.518Z,80
2017-04-11T07:10:27.242Z,95
2017-04-11T07:11:27.559Z,125
2017-04-11T07:12:27.583Z,170
2017-04-11T07:13:27.602Z,195
2017-04-11T07:14:27.619Z,175
2017-04-11T07:15:42.263Z,170
2017-04-11T07:17:27.682Z,270
2017-04-11T07:18:27.703Z,125
2017-04-11T07:19:27.732Z,130
2017-04-11T07:21:27.470Z,110
2017-04-11T07:22:27.490Z,100
2017-04-11T07:23:27.506Z,90
2017-04-11T07:24:42.449Z,80
2017-04-11T07:25:27.593Z,80
2017-04-11T07:26:27.577Z,70
2017-04-11T07:27:27.598Z,65
2017-04-11T07:28:27.618Z,75
2017-04-11T07:29:27.636Z,80
2017-04-11T07:30:27.964Z,85
2017-04-11T07:31:42.596Z,95
2017-04-11T07:32:27.698Z,100
2017-04-11T07:33:27.716Z,105
2017-04-11T07:34:28.046Z,105
2017-04-11T07:35:28.067Z,100
2017-04-11T07:36:28.089Z,95
2017-04-11T07:37:28.113Z,80
2017-04-11T07:38:42.746Z,70
2017-04-11T07:39:28.147Z,65
2017-04-11T07:40:28.176Z,65
2017-04-11T07:41:28.206Z,70
2017-04-11T07:43:42.852Z,70
2017-04-11T07:44:42.871Z,60
2017-04-11T07:45:28.275Z,55
2017-04-11T07:46:28.296Z,50
2017-04-11T07:47:42.330Z,50
2017-04-11T07:48:28.034Z,45
2017-04-11T07:49:27.754Z,40
2017-04-11T07:50:28.379Z,40
2017-04-11T07:52:28.422Z,40
2017-04-11T07:53:28.441Z,45
2017-04-11T07:54:28.473Z,55
2017-04-11T07:55:43.100Z,55
2017-04-11T07:56:28.513Z,60
2017-04-11T07:57:42.834Z,65
2017-04-11T07:58:43.165Z,60
2017-04-11T07:59:42.883Z,55
2017-04-11T08:00:28.885Z,50
2017-04-11T08:01:43.225Z,50
2017-04-11T08:02:28.634Z,50
2017-04-11T08:03:42.964Z,45
2017-04-11T08:04:28.672Z,55
2017-04-11T08:05:28.690Z,65
2017-04-11T08:06:28.704Z,70
2017-04-11T08:07:28.734Z,65
2017-04-11T08:08:43.370Z,55
2017-04-11T08:09:28.770Z,55
2017-04-11T08:10:28.484Z,55
2017-04-11T08:11:28.849Z,55
2017-04-11T08:12:28.257Z,60
2017-04-11T08:13:28.548Z,70
2017-04-11T08:14:28.567Z,65
2017-04-11T08:15:28.588Z,55
2017-04-11T08:16:43.530Z,60
2017-04-11T08:17:28.933Z,60
2017-04-11T08:18:43.568Z,65
2017-04-11T08:19:43.589Z,85
2017-04-11T08:20:43.648Z,125
2017-04-11T08:21:28.725Z,125
2017-04-11T08:22:28.738Z,100
2017-04-11T08:24:43.697Z,95
2017-04-11T08:25:29.094Z,95
2017-04-11T08:26:29.114Z,80
2017-04-11T08:27:29.137Z,85
2017-04-11T08:28:43.776Z,70
2017-04-11T08:29:28.884Z,65
2017-04-11T08:30:29.211Z,60
2017-04-11T08:31:43.836Z,55
2017-04-11T08:32:28.943Z,65
2017-04-11T08:33:43.892Z,70
2017-04-11T08:34:29.286Z,60
2017-04-11T08:35:28.996Z,50
2017-04-11T08:36:43.934Z,45
2017-04-11T08:38:29.064Z,60
2017-04-11T08:39:44.261Z,75
2017-04-11T08:40:29.403Z,80
2017-04-11T08:41:29.423Z,95
2017-04-11T08:42:29.139Z,95
2017-04-11T08:43:29.463Z,95
2017-04-11T08:44:29.836Z,95
2017-04-11T08:45:29.506Z,110
2017-04-11T08:46:29.525Z,130
2017-04-11T08:48:29.569Z,165
2017-04-11T08:50:44.226Z,175
2017-04-11T08:51:29.628Z,185
2017-04-11T08:52:29.348Z,205
2017-04-11T08:53:29.677Z,255
2017-04-11T08:54:29.689Z,460
2017-04-11T08:55:29.712Z,380
2017-04-11T08:56:29.981Z,575
2017-04-11T08:57:29.456Z,560
2017-04-11T08:58:29.471Z,560
2017-04-11T08:59:44.418Z,535
2017-04-11T09:00:29.824Z,545
2017-04-11T09:01:29.843Z,425
2017-04-11T09:02:29.861Z,325
2017-04-11T09:03:44.500Z,255
2017-04-11T09:04:44.524Z,245
2017-04-11T09:05:29.633Z,390
2017-04-11T09:06:44.578Z,465
2017-04-11T09:07:29.678Z,275
2017-04-11T09:08:29.999Z,460
2017-04-11T09:09:30.024Z,430
2017-04-11T09:10:30.053Z,585
2017-04-11T09:11:30.073Z,240
2017-04-11T09:12:30.096Z,505
2017-04-11T09:13:44.739Z,205
2017-04-11T09:14:30.148Z,150
2017-04-11T09:15:44.786Z,105
2017-04-11T09:16:44.812Z,110
2017-04-11T09:17:30.221Z,130
2017-04-11T09:18:44.861Z,160
2017-04-11T09:19:30.266Z,255
2017-04-11T09:20:44.602Z,210
2017-04-11T09:21:30.313Z,260
2017-04-11T09:22:44.949Z,250
2017-04-11T09:23:30.357Z,280
2017-04-11T09:24:30.421Z,300
2017-04-11T09:25:30.413Z,320
2017-04-11T09:26:30.425Z,270
2017-04-11T09:27:30.481Z,245
2017-04-11T09:28:30.476Z,285
2017-04-11T09:29:30.194Z,245
2017-04-11T09:30:30.527Z,225
2017-04-11T09:31:45.171Z,220
2017-04-11T09:32:30.574Z,225
2017-04-11T09:33:30.594Z,210
2017-04-11T09:34:45.236Z,210
2017-04-11T09:35:30.337Z,205
2017-04-11T09:36:30.662Z,190
2017-04-11T09:38:59.949Z,150
2017-04-11T09:40:30.456Z,115
2017-04-11T09:41:30.849Z,115
2017-04-11T09:42:45.423Z,115
2017-04-11T09:43:30.832Z,110
2017-04-11T09:44:30.851Z,115
2017-04-11T09:46:30.587Z,95
2017-04-11T09:47:30.916Z,80
2017-04-11T09:49:00.174Z,65
2017-04-11T09:49:45.580Z,60
2017-04-11T09:50:45.605Z,60
2017-04-11T09:51:31.009Z,60
2017-04-11T09:52:31.032Z,55
2017-04-11T09:53:45.369Z,55
2017-04-11T09:54:30.777Z,55
2017-04-11T09:55:45.406Z,60
2017-04-11T09:56:30.517Z,60
2017-04-11T09:57:31.156Z,60
2017-04-11T09:58:45.483Z,60
2017-04-11T09:59:30.880Z,70
2017-04-11T10:00:31.205Z,90
2017-04-11T10:01:30.924Z,105
2017-04-11T10:02:31.249Z,135
2017-04-11T10:03:31.271Z,245
2017-04-11T10:04:31.291Z,230
2017-04-11T10:06:00.546Z,380
2017-04-11T10:06:45.648Z,390
2017-04-11T10:07:31.055Z,370
2017-04-11T10:09:31.403Z,330
2017-04-11T10:10:46.036Z,320
2017-04-11T10:11:31.141Z,315
2017-04-11T10:12:31.461Z,310
2017-04-11T10:13:31.483Z,310
2017-04-11T10:15:45.544Z,310
2017-04-11T10:16:31.252Z,310
2017-04-11T10:17:31.579Z,315
2017-04-11T10:18:46.218Z,150
2017-04-11T10:19:31.018Z,145
2017-04-11T10:20:31.045Z,145
2017-04-11T10:22:00.601Z,165
2017-04-11T10:22:31.401Z,220
2017-04-11T10:23:31.113Z,170
2017-04-11T10:24:31.438Z,315
2017-04-11T10:26:31.185Z,325
2017-04-11T10:27:31.810Z,245
2017-04-11T10:28:31.840Z,300
2017-04-11T10:29:31.566Z,155
2017-04-11T10:30:31.578Z,295
2017-04-11T10:31:31.331Z,190
2017-04-11T10:32:31.926Z,195
2017-04-11T10:33:31.951Z,310
2017-04-11T10:34:46.598Z,240
2017-04-11T10:35:31.692Z,185
2017-04-11T10:36:31.412Z,325
2017-04-11T10:37:32.333Z,320
2017-04-11T10:38:32.076Z,245
2017-04-11T10:39:31.480Z,165
2017-04-11T10:40:31.806Z,165
2017-04-11T10:41:46.450Z,160
2017-04-11T10:42:32.159Z,155
2017-04-11T10:43:32.181Z,135
2017-04-11T10:44:32.204Z,120
2017-04-11T10:47:32.275Z,120
2017-04-11T10:48:32.353Z,125
2017-04-11T10:49:32.021Z,155
2017-04-11T10:50:46.960Z,165
2017-04-11T10:51:46.377Z,170
2017-04-11T10:52:32.393Z,170
2017-04-11T10:53:32.110Z,160
2017-04-11T10:55:01.667Z,130
2017-04-11T10:55:32.461Z,125
2017-04-11T10:56:47.097Z,125
2017-04-11T10:57:47.119Z,135
2017-04-11T10:58:47.139Z,135
2017-04-11T10:59:32.562Z,135
2017-04-11T11:00:32.270Z,120
2017-04-11T11:02:32.614Z,110
2017-04-11T11:04:47.280Z,110
2017-04-11T11:05:32.692Z,120
2017-04-11T11:06:47.019Z,125
2017-04-11T11:07:32.423Z,140
2017-04-11T11:08:32.758Z,160
2017-04-11T11:09:32.482Z,200
2017-04-11T11:10:32.494Z,190
2017-04-11T11:11:32.820Z,195
2017-04-11T11:12:32.536Z,205
2017-04-11T11:14:32.883Z,180
2017-04-11T11:15:32.934Z,165
2017-04-11T11:16:47.249Z,155
2017-04-11T11:17:32.951Z,150
2017-04-11T11:19:32.999Z,120
2017-04-11T11:20:32.416Z,105
2017-04-11T11:21:33.046Z,105
2017-04-11T11:22:47.378Z,115
2017-04-11T11:23:33.086Z,130
2017-04-11T11:24:32.805Z,170
2017-04-11T11:26:02.365Z,175
2017-04-11T11:26:32.875Z,180
2017-04-11T11:27:47.795Z,235
2017-04-11T11:29:02.440Z,255
2017-04-11T11:29:32.925Z,220
2017-04-11T11:30:32.639Z,230
2017-04-11T11:31:33.267Z,255
2017-04-11T11:33:33.012Z,215
2017-04-11T11:34:33.337Z,210
2017-04-11T11:35:33.363Z,200
2017-04-11T11:36:32.777Z,195
2017-04-11T11:37:48.024Z,190
2017-04-11T11:38:48.047Z,180
2017-04-11T11:40:02.687Z,180
2017-04-11T11:40:33.476Z,180
2017-04-11T11:41:33.497Z,195
2017-04-11T11:42:33.229Z,195
2017-04-11T11:43:33.248Z,205
2017-04-11T11:44:33.265Z,190
2017-04-11T11:45:33.790Z,195
2017-04-11T11:46:33.613Z,195
2017-04-11T11:48:33.665Z,190
2017-04-11T11:51:33.126Z,145
2017-04-11T11:52:33.758Z,135
2017-04-11T11:53:33.772Z,125
2017-04-11T11:54:33.802Z,120
2017-04-11T11:55:33.516Z,115
2017-04-11T11:56:48.458Z,110
2017-04-11T11:57:33.563Z,105
2017-04-11T11:58:33.889Z,100
2017-04-11T11:59:33.605Z,105
2017-04-11T12:00:48.252Z,110
2017-04-11T12:01:33.355Z,115
2017-04-11T12:02:33.681Z,130
2017-04-11T12:04:33.721Z,150
2017-04-11T12:05:34.060Z,155
2017-04-11T12:06:34.575Z,170
2017-04-11T12:07:33.789Z,185
2017-04-11T12:08:34.115Z,185
2017-04-11T12:09:34.153Z,185
2017-04-11T12:10:34.161Z,170
2017-04-11T12:11:48.802Z,160
2017-04-11T12:12:48.224Z,165
2017-04-11T12:13:48.541Z,185
2017-04-11T12:14:48.566Z,190
2017-04-11T12:15:33.974Z,175
2017-04-11T12:16:48.914Z,210
2017-04-11T12:17:34.018Z,215
2017-04-11T12:18:34.352Z,160
2017-04-11T12:20:34.090Z,140
2017-04-11T12:21:34.109Z,145
2017-04-11T12:22:34.132Z,195
2017-04-11T12:23:34.167Z,180
2017-04-11T12:24:34.480Z,180
2017-04-11T12:25:34.205Z,175
2017-04-11T12:26:48.841Z,170
2017-04-11T12:27:49.178Z,170
2017-04-11T12:29:34.591Z,120
2017-04-11T12:30:34.618Z,120
2017-04-11T12:31:34.338Z,120
2017-04-11T12:32:48.371Z,175
2017-04-11T12:33:34.077Z,170
2017-04-11T12:34:34.409Z,175
2017-04-11T12:35:34.126Z,170
2017-04-11T12:36:34.146Z,175
2017-04-11T12:37:34.780Z,175
2017-04-11T12:38:34.498Z,175
2017-04-11T12:39:49.437Z,185
2017-04-11T12:41:34.871Z,195
2017-04-11T12:42:34.586Z,205
2017-04-11T12:43:34.912Z,215
2017-04-11T12:44:34.942Z,225
2017-04-11T12:45:34.961Z,235
2017-04-11T12:46:34.979Z,240
2017-04-11T12:47:35.005Z,235
2017-04-11T12:48:49.336Z,225
2017-04-11T12:49:35.093Z,240
2017-04-11T12:50:35.073Z,235
2017-04-11T12:51:35.091Z,230
2017-04-11T12:52:35.119Z,215
2017-04-11T12:55:35.189Z,250
2017-04-11T12:56:49.829Z,260
2017-04-11T12:57:35.234Z,230
2017-04-11T12:58:35.258Z,260
2017-04-11T12:59:35.280Z,240
2017-04-11T13:00:35.302Z,205
2017-04-11T13:01:49.942Z,160
2017-04-11T13:02:35.351Z,190
2017-04-11T13:03:49.987Z,145
2017-04-11T13:04:35.400Z,145
2017-04-11T13:05:35.415Z,145
2017-04-11T13:06:35.444Z,145
2017-04-11T13:07:35.507Z,145
2017-04-11T13:09:50.131Z,160
2017-04-11T13:10:35.535Z,205
2017-04-11T13:11:35.559Z,225
2017-04-11T13:12:35.277Z,200
2017-04-11T13:13:35.605Z,245
2017-04-11T13:14:35.624Z,255
2017-04-11T13:15:35.647Z,200
2017-04-11T13:17:04.906Z,240
2017-04-11T13:17:50.010Z,235
2017-04-11T13:18:35.764Z,170
2017-04-11T13:19:35.748Z,165
2017-04-11T13:20:35.461Z,150
2017-04-11T13:21:35.788Z,140
2017-04-11T13:22:35.512Z,140
2017-04-11T13:23:35.838Z,140
2017-04-11T13:24:35.861Z,145
2017-04-11T13:25:35.881Z,145
2017-04-11T13:26:35.912Z,140
2017-04-11T13:27:35.936Z,145
2017-04-11T13:28:36.001Z,150
2017-04-11T13:29:35.983Z,150
2017-04-11T13:30:35.999Z,160
2017-04-11T13:31:36.026Z,170
2017-04-11T13:32:36.045Z,175
2017-04-11T13:33:36.073Z,180
2017-04-11T13:34:36.093Z,170
2017-04-11T13:36:36.190Z,225
2017-04-11T13:37:36.173Z,220
2017-04-11T13:38:36.189Z,215
2017-04-11T13:39:36.208Z,220
2017-04-11T13:40:35.930Z,155
2017-04-11T13:42:50.898Z,190
2017-04-11T13:43:36.301Z,140
2017-04-11T13:44:36.325Z,195
2017-04-11T13:45:36.348Z,145
2017-04-11T13:46:36.371Z,210
2017-04-11T13:48:05.629Z,205
2017-04-11T13:48:50.734Z,165
2017-04-11T13:50:05.673Z,190
2017-04-11T13:50:36.166Z,195
2017-04-11T13:51:51.109Z,190
2017-04-11T13:52:36.519Z,190
2017-04-11T13:53:36.537Z,190
2017-04-11T13:54:36.561Z,195
2017-04-11T13:55:36.585Z,200
2017-04-11T13:56:36.303Z,200
2017-04-11T13:57:36.334Z,200
2017-04-11T13:58:36.659Z,205
2017-04-11T13:59:36.677Z,215
2017-04-11T14:00:36.094Z,220
2017-04-11T14:01:51.340Z,225
2017-04-11T14:02:36.746Z,230
2017-04-11T14:03:36.772Z,235
2017-04-11T14:05:06.035Z,235
2017-04-11T14:05:36.820Z,235
2017-04-11T14:06:36.537Z,220
2017-04-11T14:07:51.489Z,205
2017-04-11T14:08:36.896Z,235
2017-04-11T14:09:36.917Z,230
2017-04-11T14:10:37.185Z,225
2017-04-11T14:11:36.960Z,220
2017-04-11T14:12:36.681Z,215
2017-04-11T14:13:37.012Z,195
2017-04-11T14:14:51.345Z,190
2017-04-11T14:15:37.051Z,130
2017-04-11T14:16:37.082Z,195
2017-04-11T14:17:36.800Z,200
2017-04-11T14:18:36.823Z,130
2017-04-11T14:19:36.843Z,130
2017-04-11T14:20:37.177Z,130
2017-04-11T14:21:36.891Z,130
2017-04-11T14:22:36.614Z,125
2017-04-11T14:23:51.862Z,120
2017-04-11T14:24:36.961Z,115
2017-04-11T14:25:37.298Z,115
2017-04-11T14:27:37.336Z,120
2017-04-11T14:28:37.362Z,120
2017-04-11T14:29:37.082Z,120
2017-04-11T14:30:37.408Z,120
2017-04-11T14:31:37.429Z,115
2017-04-11T14:32:37.454Z,120
2017-04-11T14:33:37.174Z,125
2017-04-11T14:36:06.755Z,125
2017-04-11T14:37:51.882Z,190
2017-04-11T14:38:52.213Z,150
2017-04-11T14:40:37.636Z,195
2017-04-11T14:41:37.661Z,200
2017-04-11T14:42:37.684Z,200
2017-04-11T14:45:37.751Z,195
2017-04-11T14:46:52.395Z,160
2017-04-11T14:47:37.499Z,165
2017-04-11T14:48:37.823Z,195
2017-04-11T14:49:37.854Z,195
2017-04-11T14:50:52.188Z,125
2017-04-11T14:51:37.894Z,120
2017-04-11T14:52:37.920Z,115
2017-04-11T14:53:52.255Z,120
2017-04-11T14:54:37.971Z,145
2017-04-11T14:55:37.989Z,120
2017-04-11T14:56:38.016Z,110
2017-04-11T14:57:37.736Z,110
2017-04-11T14:58:38.067Z,105
2017-04-11T14:59:38.084Z,105
2017-04-11T15:00:38.111Z,110
2017-04-11T15:01:52.746Z,105
2017-04-11T15:02:37.847Z,105
2017-04-11T15:03:52.797Z,105
2017-04-11T15:04:52.813Z,100
2017-04-11T15:05:52.841Z,95
2017-04-11T15:06:52.863Z,95
2017-04-11T15:07:38.268Z,95
2017-04-11T15:08:52.956Z,95
2017-04-11T15:09:52.941Z,90
2017-04-11T15:10:52.955Z,90
2017-04-11T15:11:38.360Z,95
2017-04-11T15:12:38.381Z,90
2017-04-11T15:13:38.099Z,85
2017-04-11T15:14:38.473Z,85
2017-04-11T15:15:38.150Z,80
2017-04-11T15:17:38.201Z,85
2017-04-11T15:18:53.142Z,85
2017-04-11T15:19:38.547Z,90
2017-04-11T15:20:38.567Z,135
2017-04-11T15:21:53.201Z,90